Time;durP1;ratioP1;P1;durP2;ratioP2;P2;SDS_P1;SDS_P2;PMS_P1;PMS_P2;Temp;Humidity;BMP_temperature;BMP_pressure;BME280_temperature;BME280_humidity;BME280_pressure;Samples;Min_cycle;Max_cycle;Signal;HPM_P1;HPM_P2
2023/12/10 00:01:09;;;;;;;60.80;34.80;;;;;;;0.28;93.15;99905.82;108469;284;155010;-68
2023/12/10 00:03:58;;;;;;;65.70;36.40;;;;;;;0.27;93.17;99901.36;108662;284;38198;-67
2023/12/10 00:06:32;;;;;;;65.20;35.90;;;;;;;0.26;93.20;99903.42;108467;284;154029;-71
2023/12/10 00:09:07;;;;;;;62.60;36.10;;;;;;;0.26;93.33;99902.40;108669;284;39668;-73
2023/12/10 00:11:42;;;;;;;62.70;35.90;;;;;;;0.27;93.23;99905.83;108532;284;154361;-69
2023/12/10 00:14:16;;;;;;;62.60;35.50;;;;;;;0.29;93.24;99897.58;108574;284;38491;-67
2023/12/10 00:16:50;;;;;;;62.20;35.00;;;;;;;0.32;93.18;99898.25;108515;284;154254;-67
2023/12/10 00:19:31;;;;;;;61.50;35.80;;;;;;;0.30;92.96;99897.40;108534;284;39363;-67
2023/12/10 00:22:06;;;;;;;64.50;37.60;;;;;;;0.29;92.97;99890.20;108666;284;40325;-70
2023/12/10 00:24:45;;;;;;;64.10;36.70;;;;;;;0.28;93.07;99884.20;108433;284;154156;-69
2023/12/10 00:27:26;;;;;;;63.10;35.40;;;;;;;0.28;93.01;99882.48;108639;284;38386;-69
2023/12/10 00:30:00;;;;;;;62.50;35.30;;;;;;;0.30;93.13;99877.34;108461;284;155174;-69
2023/12/10 00:32:34;;;;;;;64.90;36.30;;;;;;;0.34;93.30;99876.11;108632;284;38184;-72
2023/12/10 00:35:13;;;;;;;63.90;36.50;;;;;;;0.36;93.00;99876.11;108497;284;155017;-73
2023/12/10 00:37:47;;;;;;;65.90;37.90;;;;;;;0.33;92.89;99878.68;108638;284;38789;-71
2023/12/10 00:40:22;;;;;;;66.90;37.40;;;;;;;0.32;92.92;99881.61;108661;284;38581;-71
2023/12/10 00:42:59;;;;;;;64.50;37.10;;;;;;;0.33;92.97;99885.72;108407;283;155503;-69
2023/12/10 00:45:35;;;;;;;65.30;35.70;;;;;;;0.33;92.94;99881.95;108676;284;38478;-68
2023/12/10 00:48:10;;;;;;;65.50;37.10;;;;;;;0.34;92.86;99887.61;108495;283;154104;-71
2023/12/10 00:50:44;;;;;;;66.10;40.00;;;;;;;0.35;93.02;99888.64;108555;283;38154;-73
2023/12/10 00:53:18;;;;;;;68.10;40.00;;;;;;;0.38;93.15;99888.95;108451;283;153853;-69
2023/12/10 00:55:52;;;;;;;70.60;39.70;;;;;;;0.40;93.24;99892.90;108577;284;39335;-68
2023/12/10 00:58:27;;;;;;;67.60;37.20;;;;;;;0.42;93.22;99895.98;108698;284;38141;-72
2023/12/10 01:01:04;;;;;;;67.10;36.80;;;;;;;0.44;93.31;99899.40;108439;284;154044;-72
2023/12/10 01:03:39;;;;;;;64.60;37.00;;;;;;;0.50;93.29;99906.41;108659;284;38937;-68
2023/12/10 01:06:19;;;;;;;68.70;40.00;;;;;;;0.52;93.14;99907.09;108483;284;154424;-68
2023/12/10 01:08:51;;;;;;;;;;;;;;;0.55;93.17;99906.55;108687;284;38479;-71
2023/12/10 01:11:25;;;;;;;74.90;40.00;;;;;;;0.55;93.38;99901.75;108356;283;139868;-70
2023/12/10 01:14:02;;;;;;;72.10;39.80;;;;;;;0.56;93.09;99899.17;108581;283;38335;-73
2023/12/10 01:16:37;;;;;;;64.30;37.20;;;;;;;0.57;93.21;99899.52;108581;283;38395;-74
2023/12/10 01:19:14;;;;;;;67.90;38.50;;;;;;;0.59;93.12;99897.95;108464;284;38766;-71
2023/12/10 01:21:50;;;;;;;64.10;36.70;;;;;;;0.61;92.95;99899.84;108738;284;38732;-72
2023/12/10 01:24:24;;;;;;;71.20;40.20;;;;;;;0.60;92.70;99900.52;108468;284;153695;-71
2023/12/10 01:27:01;;;;;;;72.00;40.30;;;;;;;0.59;92.85;99896.23;108663;284;38884;-73
2023/12/10 01:29:36;;;;;;;69.80;39.70;;;;;;;0.61;93.02;99891.95;108538;284;153928;-71
2023/12/10 01:32:17;;;;;;;66.50;37.60;;;;;;;0.62;92.95;99889.18;108636;284;38883;-73
2023/12/10 01:34:52;;;;;;;71.50;39.20;;;;;;;0.61;92.71;99884.73;108513;284;155523;-72
2023/12/10 01:37:26;;;;;;;70.70;38.80;;;;;;;0.57;92.43;99880.98;108547;284;38847;-71
2023/12/10 01:40:01;;;;;;;69.70;39.50;;;;;;;0.56;92.70;99873.27;108541;284;38404;-71
2023/12/10 01:42:35;;;;;;;69.70;39.60;;;;;;;0.55;92.57;99877.89;108415;284;154359;-70
2023/12/10 01:45:12;;;;;;;68.40;38.20;;;;;;;0.54;92.62;99890.77;108588;284;38486;-68
2023/12/10 01:47:49;;;;;;;62.70;37.30;;;;;;;0.51;92.68;99893.71;108399;284;154408;-68
2023/12/10 01:50:25;;;;;;;69.10;35.70;;;;;;;0.55;92.94;99890.42;108591;284;38798;-68
2023/12/10 01:53:08;;;;;;;64.70;35.90;;;;;;;0.59;92.97;99889.38;108410;284;155518;-68
2023/12/10 01:55:42;;;;;;;66.90;38.50;;;;;;;0.57;92.58;99893.67;108525;284;38304;-67
2023/12/10 01:58:21;;;;;;;68.20;37.50;;;;;;;0.55;92.64;99892.49;108555;284;38346;-68
2023/12/10 02:01:05;;;;;;;72.60;38.00;;;;;;;0.51;92.67;99897.99;108414;284;154078;-67
2023/12/10 02:03:46;;;;;;;67.00;36.70;;;;;;;0.51;92.83;99902.63;108597;284;38206;-66
2023/12/10 02:06:25;;;;;;;63.60;35.70;;;;;;;0.51;92.66;99905.02;108358;284;154744;-70
2023/12/10 02:08:59;;;;;;;64.10;35.00;;;;;;;0.50;92.73;99903.67;108535;284;38199;-67
2023/12/10 02:11:36;;;;;;;65.80;36.20;;;;;;;0.50;92.75;99903.49;108406;284;154190;-71
2023/12/10 02:14:13;;;;;;;69.10;38.50;;;;;;;0.47;92.64;99904.02;108547;284;38211;-71
2023/12/10 02:16:47;;;;;;;69.50;37.20;;;;;;;0.43;92.60;99901.46;108501;284;153897;-68
2023/12/10 02:19:21;;;;;;;66.20;36.40;;;;;;;0.40;92.67;99893.24;108537;284;39199;-67
2023/12/10 02:22:01;;;;;;;68.20;37.80;;;;;;;0.41;92.99;99893.41;108686;284;40618;-68
2023/12/10 02:24:40;;;;;;;61.20;34.10;;;;;;;0.43;92.99;99890.83;108533;283;155120;-70
2023/12/10 02:27:15;;;;;;;60.90;36.00;;;;;;;0.46;93.02;99885.33;108627;283;38483;-71
2023/12/10 02:29:52;;;;;;;64.70;34.50;;;;;;;0.44;92.74;99884.13;108456;283;154646;-71
2023/12/10 02:32:28;;;;;;;60.90;34.20;;;;;;;0.38;92.55;99886.55;108635;283;39402;-71
2023/12/10 02:35:05;;;;;;;62.30;33.50;;;;;;;0.34;92.46;99886.73;108409;283;154367;-71
2023/12/10 02:37:44;;;;;;;57.90;33.10;;;;;;;0.32;92.58;99887.61;108633;283;38650;-69
2023/12/10 02:40:21;;;;;;;55.80;31.90;;;;;;;0.36;92.83;99882.63;108593;283;38517;-68
2023/12/10 02:42:59;;;;;;;56.00;31.50;;;;;;;0.36;92.57;99872.50;108444;283;155424;-71
2023/12/10 02:45:34;;;;;;;57.30;33.10;;;;;;;0.35;92.53;99869.59;108678;284;38313;-71
2023/12/10 02:48:08;;;;;;;58.80;33.00;;;;;;;0.33;92.44;99866.17;108406;283;176102;-71
2023/12/10 02:50:43;;;;;;;59.20;32.80;;;;;;;0.30;92.30;99858.98;108598;283;38995;-72
2023/12/10 02:53:19;;;;;;;56.90;31.10;;;;;;;0.29;92.36;99851.95;108453;283;154505;-73
2023/12/10 02:55:57;;;;;;;53.90;30.40;;;;;;;0.27;92.34;99848.86;108644;283;38144;-71
2023/12/10 02:58:36;;;;;;;54.10;30.60;;;;;;;0.25;92.09;99844.75;108696;284;38549;-67
2023/12/10 03:01:20;;;;;;;50.80;30.10;;;;;;;0.24;92.15;99839.45;108361;284;176041;-67
2023/12/10 03:03:55;;;;;;;52.00;30.20;;;;;;;0.22;91.97;99834.31;108681;284;40053;-73
2023/12/10 03:06:31;;;;;;;56.70;31.40;;;;;;;0.21;91.95;99834.14;108398;284;153885;-71
2023/12/10 03:09:08;;;;;;;57.60;30.50;;;;;;;0.20;91.99;99834.84;108702;284;39386;-72
2023/12/10 03:11:44;;;;;;;54.30;31.00;;;;;;;0.20;91.98;99833.96;108529;284;155402;-70
2023/12/10 03:14:20;;;;;;;49.70;28.50;;;;;;;0.20;92.07;99829.69;108649;284;38258;-71
2023/12/10 03:16:56;;;;;;;48.40;27.00;;;;;;;0.20;91.97;99831.57;108564;284;155640;-71
2023/12/10 03:19:30;;;;;;;46.30;27.50;;;;;;;0.19;91.69;99829.35;108454;284;176054;-71
2023/12/10 03:22:06;;;;;;;52.60;29.40;;;;;;;0.15;91.53;99820.96;108697;284;39361;-71
2023/12/10 03:24:42;;;;;;;50.30;27.80;;;;;;;0.11;91.34;99818.23;108375;284;175971;-71
2023/12/10 03:27:16;;;;;;;54.60;30.30;;;;;;;0.06;91.46;99819.11;108700;284;38362;-68
2023/12/10 03:29:53;;;;;;;50.50;29.10;;;;;;;0.04;91.50;99824.44;108550;283;154246;-68
2023/12/10 03:32:27;;;;;;;48.10;27.20;;;;;;;-0.02;91.25;99825.66;108598;283;39415;-67
2023/12/10 03:35:02;;;;;;;45.60;26.20;;;;;;;-0.06;91.35;99823.45;108441;283;154987;-68
2023/12/10 03:37:40;;;;;;;45.50;27.00;;;;;;;-0.09;91.32;99816.60;108585;283;38197;-67
2023/12/10 03:40:18;;;;;;;40.80;24.70;;;;;;;-0.12;91.31;99812.33;108658;284;38671;-69
2023/12/10 03:42:52;;;;;;;47.00;27.20;;;;;;;-0.13;91.50;99807.20;108498;283;154565;-70
2023/12/10 03:45:28;;;;;;;46.60;27.40;;;;;;;-0.15;91.35;99802.90;108605;283;38199;-68
2023/12/10 03:48:05;;;;;;;48.00;25.00;;;;;;;-0.15;91.52;99796.39;108461;283;153874;-70
2023/12/10 03:50:39;;;;;;;48.80;25.30;;;;;;;-0.19;91.49;99788.88;107982;283;918396;-70
2023/12/10 03:53:14;;;;;;;43.20;25.60;;;;;;;-0.20;91.60;99792.81;108573;283;155204;-66
2023/12/10 03:55:50;;;;;;;41.60;23.80;;;;;;;-0.18;91.46;99794.86;108574;284;40253;-68
2023/12/10 03:58:25;;;;;;;39.80;23.70;;;;;;;-0.19;91.44;99797.79;108593;283;38189;-72
2023/12/10 04:01:01;;;;;;;43.00;24.70;;;;;;;-0.20;91.37;99794.20;108461;283;154175;-71
2023/12/10 04:03:35;;;;;;;43.10;25.30;;;;;;;-0.20;91.51;99802.06;108710;284;38293;-71
2023/12/10 04:06:16;;;;;;;46.40;25.10;;;;;;;-0.19;91.54;99802.41;108525;283;153891;-71
2023/12/10 04:08:53;;;;;;;40.90;23.20;;;;;;;-0.17;91.58;99800.52;108594;283;38360;-68
2023/12/10 04:11:30;;;;;;;40.00;23.60;;;;;;;-0.18;91.44;99801.38;108480;283;156087;-72
2023/12/10 04:14:26;;;;;;;43.10;25.00;;;;;;;-0.17;91.51;99798.80;108587;283;38183;-73
2023/12/10 04:17:00;;;;;;;42.60;25.20;;;;;;;-0.13;91.68;99806.16;108571;283;154903;-70
2023/12/10 04:19:39;;;;;;;39.10;23.80;;;;;;;-0.09;91.63;99805.64;108529;284;39386;-69
2023/12/10 04:22:14;;;;;;;44.50;24.00;;;;;;;-0.08;91.33;99807.00;108641;283;38779;-71
2023/12/10 04:24:48;;;;;;;41.20;24.70;;;;;;;-0.07;91.37;99803.91;108421;283;153731;-71
2023/12/10 04:27:23;;;;;;;41.50;24.40;;;;;;;-0.07;91.34;99806.13;108709;284;38189;-72
2023/12/10 04:30:00;;;;;;;38.40;23.40;;;;;;;-0.08;91.21;99808.02;108550;283;154507;-73
2023/12/10 04:32:34;;;;;;;41.80;23.40;;;;;;;-0.09;91.10;99812.99;108644;283;38290;-71
2023/12/10 04:35:13;;;;;;;37.30;22.10;;;;;;;-0.09;91.16;99814.38;108470;283;154645;-70
2023/12/10 04:37:48;;;;;;;39.90;22.80;;;;;;;-0.08;91.09;99808.55;108617;283;38413;-71
2023/12/10 04:40:22;;;;;;;37.50;22.60;;;;;;;-0.11;90.80;99805.82;108569;284;176083;-73
2023/12/10 04:42:57;;;;;;;40.90;23.10;;;;;;;-0.12;90.82;99800.15;108505;283;154073;-69
2023/12/10 04:45:31;;;;;;;45.20;24.30;;;;;;;-0.15;90.83;99797.77;108431;283;190404;-69
2023/12/10 04:48:08;;;;;;;39.40;21.30;;;;;;;-0.17;90.82;99798.28;108437;283;154702;-71
2023/12/10 04:50:43;;;;;;;37.80;21.30;;;;;;;-0.18;90.69;99800.17;108642;283;39332;-71
2023/12/10 04:53:17;;;;;;;35.40;20.80;;;;;;;-0.18;90.78;99802.06;108505;278;155041;-71
2023/12/10 04:55:51;;;;;;;35.00;20.50;;;;;;;-0.19;90.58;99803.60;108480;284;38589;-73
2023/12/10 04:58:26;;;;;;;40.30;22.70;;;;;;;-0.19;90.63;99796.41;108370;285;39431;-68
2023/12/10 05:01:04;;;;;;;35.70;21.70;;;;;;;-0.19;90.65;99799.84;108405;285;157943;-67
2023/12/10 05:03:45;;;;;;;37.10;21.70;;;;;;;-0.19;90.69;99807.05;108549;284;39914;-67
2023/12/10 05:06:22;;;;;;;37.50;21.20;;;;;;;-0.20;90.59;99811.66;108418;285;156228;-69
2023/12/10 05:09:03;;;;;;;34.00;19.50;;;;;;;-0.21;90.49;99813.90;108278;285;38813;-70
2023/12/10 05:11:38;;;;;;;37.70;20.10;;;;;;;-0.24;90.22;99805.17;107909;284;719615;-71
2023/12/10 05:14:12;;;;;;;34.80;21.50;;;;;;;-0.24;90.20;99811.34;108582;285;38692;-72
2023/12/10 05:16:46;;;;;;;37.10;22.20;;;;;;;-0.24;90.38;99804.83;108522;285;39344;-71
2023/12/10 05:19:20;;;;;;;35.90;21.50;;;;;;;-0.24;90.43;99808.77;108343;285;39804;-72
2023/12/10 05:21:55;;;;;;;35.80;21.80;;;;;;;-0.24;90.28;99812.89;108567;284;38201;-68
2023/12/10 05:24:30;;;;;;;35.10;20.40;;;;;;;-0.28;90.09;99807.58;108406;283;155628;-69
2023/12/10 05:27:04;;;;;;;35.10;20.60;;;;;;;-0.29;90.23;99813.59;108584;284;38473;-71
2023/12/10 05:29:38;;;;;;;35.60;21.30;;;;;;;-0.30;90.08;99814.11;108429;285;155859;-70
2023/12/10 05:32:14;;;;;;;36.10;20.40;;;;;;;-0.29;90.09;99806.05;108535;285;38486;-70
2023/12/10 05:34:48;;;;;;;35.30;21.30;;;;;;;-0.28;90.11;99807.92;108300;285;38831;-68
2023/12/10 05:37:22;;;;;;;34.60;19.40;;;;;;;-0.29;89.79;99811.52;108349;285;40330;-70
2023/12/10 05:39:59;;;;;;;33.20;19.60;;;;;;;-0.34;89.71;99811.20;108545;285;38587;-67
2023/12/10 05:42:34;;;;;;;33.40;18.70;;;;;;;-0.35;89.85;99811.89;108413;283;154531;-67
2023/12/10 05:45:13;;;;;;;31.80;19.00;;;;;;;-0.37;89.44;99818.92;108547;283;38235;-68
2023/12/10 05:47:49;;;;;;;31.00;19.60;;;;;;;-0.38;89.48;99829.38;108437;284;154212;-71
2023/12/10 05:50:24;;;;;;;31.60;18.60;;;;;;;-0.42;89.18;99836.41;108582;284;39394;-72
2023/12/10 05:52:59;;;;;;;31.70;17.70;;;;;;;-0.46;89.26;99836.59;108452;285;155493;-70
2023/12/10 05:55:36;;;;;;;28.30;17.50;;;;;;;-0.47;89.11;99844.64;108504;285;38301;-71
2023/12/10 05:58:11;;;;;;;28.30;16.60;;;;;;;-0.54;88.64;99849.63;108635;285;39000;-69
2023/12/10 06:00:48;;;;;;;24.80;16.00;;;;;;;-0.60;88.82;99854.08;108353;285;155131;-68
2023/12/10 06:03:24;;;;;;;26.80;17.20;;;;;;;-0.63;88.98;99848.61;108547;285;38464;-70
2023/12/10 06:05:59;;;;;;;28.90;18.20;;;;;;;-0.68;88.97;99842.61;108411;285;154910;-69
2023/12/10 06:08:33;;;;;;;29.40;16.60;;;;;;;-0.70;89.05;99852.38;108646;285;38338;-70
2023/12/10 06:11:12;;;;;;;28.80;17.60;;;;;;;-0.73;89.02;99860.95;108439;285;154898;-71
2023/12/10 06:13:45;;;;;;;;;;;;;;;-0.74;89.15;99865.91;108328;285;39335;-72
2023/12/10 06:16:20;;;;;;;30.70;17.30;;;;;;;-0.80;89.19;99868.48;108567;284;39519;-69
2023/12/10 06:19:05;;;;;;;30.10;18.70;;;;;;;-0.84;89.00;99873.27;108448;285;154005;-71
2023/12/10 06:21:41;;;;;;;28.30;16.70;;;;;;;-0.87;89.23;99882.36;108381;285;38480;-69
2023/12/10 06:24:24;;;;;;;29.10;16.30;;;;;;;-0.89;89.23;99888.85;108391;285;154899;-66
2023/12/10 06:27:05;;;;;;;26.90;17.80;;;;;;;-0.90;89.27;99889.71;108581;285;38919;-66
2023/12/10 06:29:41;;;;;;;29.80;16.80;;;;;;;-0.93;89.23;99897.24;108436;285;154368;-67
2023/12/10 06:32:16;;;;;;;28.50;16.80;;;;;;;-0.95;89.25;99898.27;108592;285;39118;-71
2023/12/10 06:34:59;;;;;;;29.20;17.70;;;;;;;-0.94;89.40;99889.71;108575;285;39553;-71
2023/12/10 06:37:37;;;;;;;30.30;17.60;;;;;;;-0.92;89.59;99892.11;108215;285;176153;-72
2023/12/10 06:40:15;;;;;;;28.00;16.70;;;;;;;-0.95;89.19;99890.91;108588;285;38167;-74
2023/12/10 06:42:53;;;;;;;28.80;17.40;;;;;;;-0.98;89.25;99886.29;108499;285;154131;-71
2023/12/10 06:45:30;;;;;;;26.60;16.40;;;;;;;-0.96;89.50;99888.17;108599;285;39358;-71
2023/12/10 06:48:07;;;;;;;28.00;15.90;;;;;;;-1.03;89.30;99892.77;108411;285;155404;-67
2023/12/10 06:50:54;;;;;;;26.60;16.20;;;;;;;-1.06;89.38;99897.91;108531;285;38214;-68
2023/12/10 06:53:36;;;;;;;27.40;15.40;;;;;;;-1.05;89.50;99903.05;108433;285;155483;-70
2023/12/10 06:56:18;;;;;;;27.00;15.90;;;;;;;-1.07;89.51;99893.98;108531;285;38515;-73
2023/12/10 06:58:57;;;;;;;29.30;17.00;;;;;;;-1.05;89.62;99887.64;108364;285;39333;-68
2023/12/10 07:01:38;;;;;;;27.50;17.00;;;;;;;-1.06;89.71;99889.01;108616;284;38812;-70
2023/12/10 07:04:16;;;;;;;32.30;18.60;;;;;;;-1.04;89.82;99892.44;108622;283;38340;-71
2023/12/10 07:06:51;;;;;;;;;;;;;;;-1.04;89.72;99898.77;108502;283;155755;-69
2023/12/10 07:09:33;;;;;;;35.70;19.20;;;;;;;-1.05;89.91;99898.59;108522;284;38577;-68
2023/12/10 07:12:11;;;;;;;30.20;18.10;;;;;;;-1.00;90.01;99900.14;108464;284;155928;-71
2023/12/10 07:14:46;;;;;;;32.20;19.20;;;;;;;-0.96;90.06;99896.38;108667;284;39397;-73
2023/12/10 07:17:24;;;;;;;32.40;18.40;;;;;;;-0.88;90.28;99885.78;108553;284;155384;-71
2023/12/10 07:20:00;;;;;;;34.70;19.70;;;;;;;-0.89;89.74;99887.66;108596;284;38262;-72
2023/12/10 07:22:38;;;;;;;31.10;17.60;;;;;;;-0.92;89.76;99891.77;108719;284;38408;-68
2023/12/10 07:25:18;;;;;;;32.40;18.30;;;;;;;-0.89;89.84;99890.55;108496;284;154919;-71
2023/12/10 07:27:53;;;;;;;33.00;18.50;;;;;;;-0.88;89.71;99896.23;108685;284;38850;-69
2023/12/10 07:30:27;;;;;;;32.40;20.10;;;;;;;-0.88;89.64;99901.87;108506;284;155277;-70
2023/12/10 07:33:02;;;;;;;36.10;19.90;;;;;;;-0.89;89.67;99912.31;108714;284;38192;-71
2023/12/10 07:35:38;;;;;;;36.00;21.40;;;;;;;-0.90;89.59;99916.59;108566;282;156256;-71
2023/12/10 07:38:12;;;;;;;34.60;19.40;;;;;;;-0.92;89.58;99925.16;108657;284;38237;-71
2023/12/10 07:40:50;;;;;;;34.80;19.90;;;;;;;-0.95;89.58;99924.80;108746;284;38441;-72
2023/12/10 07:43:25;;;;;;;37.20;20.70;;;;;;;-0.91;89.81;99928.75;108480;284;154060;-69
2023/12/10 07:46:00;;;;;;;38.50;21.80;;;;;;;-0.88;89.84;99927.56;108708;284;38387;-69
2023/12/10 07:48:37;;;;;;;39.10;22.10;;;;;;;-0.83;90.01;99933.56;108488;284;154018;-70
2023/12/10 07:51:18;;;;;;;35.40;20.70;;;;;;;-0.78;90.06;99941.95;108659;284;38301;-70
2023/12/10 07:53:53;;;;;;;36.80;20.30;;;;;;;-0.79;89.66;99940.92;108470;284;155006;-67
2023/12/10 07:56:27;;;;;;;40.10;22.20;;;;;;;-0.79;89.54;99939.54;108626;284;39860;-71
2023/12/10 07:59:02;;;;;;;40.40;22.30;;;;;;;-0.76;89.42;99939.04;108552;284;154877;-73
2023/12/10 08:01:43;;;;;;;37.00;21.30;;;;;;;-0.74;89.51;99938.52;108653;284;38336;-69
2023/12/10 08:04:29;;;;;;;36.20;21.30;;;;;;;-0.70;89.55;99942.13;108664;284;38343;-68
2023/12/10 08:07:08;;;;;;;41.20;22.90;;;;;;;-0.67;89.76;99942.30;108486;284;154116;-72
2023/12/10 08:09:44;;;;;;;38.60;19.60;;;;;;;-0.62;89.47;99949.67;108638;284;38188;-72
2023/12/10 08:12:19;;;;;;;37.70;22.00;;;;;;;-0.61;89.04;99957.55;108432;284;154745;-71
2023/12/10 08:14:54;;;;;;;36.00;20.70;;;;;;;-0.60;88.70;99959.42;108635;284;38594;-72
2023/12/10 08:17:28;;;;;;;37.40;22.20;;;;;;;-0.60;88.79;99952.24;108507;284;153963;-68
2023/12/10 08:20:05;;;;;;;35.20;20.90;;;;;;;-0.58;88.75;99949.52;108577;284;38620;-70
2023/12/10 08:22:43;;;;;;;38.40;20.30;;;;;;;-0.60;88.66;99948.64;108664;284;39677;-68
2023/12/10 08:25:17;;;;;;;36.20;21.00;;;;;;;-0.57;88.80;99949.84;108400;284;154324;-69
2023/12/10 08:27:52;;;;;;;34.70;20.80;;;;;;;-0.54;88.82;99940.60;108629;284;38657;-74
2023/12/10 08:30:26;;;;;;;37.50;21.50;;;;;;;-0.49;88.42;99945.73;108486;284;155256;-73
2023/12/10 08:33:01;;;;;;;38.50;21.70;;;;;;;-0.48;88.29;99943.35;108541;284;38198;-73
2023/12/10 08:35:35;;;;;;;35.30;20.30;;;;;;;-0.48;88.07;99940.25;108538;284;154179;-73
2023/12/10 08:38:09;;;;;;;39.40;21.60;;;;;;;-0.49;88.04;99937.84;108593;284;38499;-69
2023/12/10 08:40:44;;;;;;;34.50;20.10;;;;;;;-0.47;87.88;99929.81;108651;284;39436;-68
2023/12/10 08:43:21;;;;;;;37.30;22.10;;;;;;;-0.40;88.25;99927.21;108466;284;154646;-69
2023/12/10 08:46:01;;;;;;;36.60;21.10;;;;;;;-0.31;88.35;99921.55;108678;284;39392;-66
2023/12/10 08:48:43;;;;;;;37.30;21.20;;;;;;;-0.28;87.43;99920.88;108418;284;153849;-72
2023/12/10 08:51:27;;;;;;;37.50;21.80;;;;;;;-0.21;87.80;99918.29;108725;284;38188;-71
2023/12/10 08:54:03;;;;;;;34.10;20.40;;;;;;;-0.12;87.73;99921.36;108490;284;154406;-73
2023/12/10 08:56:40;;;;;;;39.70;23.30;;;;;;;-0.03;87.36;99927.34;108644;284;38290;-70
2023/12/10 08:59:17;;;;;;;35.40;20.60;;;;;;;0.06;87.11;99928.71;108581;284;154060;-70
2023/12/10 09:01:53;;;;;;;39.30;22.20;;;;;;;0.08;86.68;99935.04;108637;284;39652;-68
2023/12/10 09:04:29;;;;;;;40.90;23.00;;;;;;;0.07;86.55;99938.14;108664;284;38246;-69
2023/12/10 09:07:12;;;;;;;38.60;22.30;;;;;;;0.13;86.75;99937.77;108470;284;155580;-70
2023/12/10 09:09:54;;;;;;;39.00;23.00;;;;;;;0.18;86.65;99939.64;108727;284;38310;-69
2023/12/10 09:12:29;;;;;;;44.10;24.80;;;;;;;0.25;86.84;99939.79;108545;284;153722;-72
2023/12/10 09:15:11;;;;;;;47.80;27.00;;;;;;;0.29;86.16;99940.64;108660;284;38177;-74
2023/12/10 09:17:46;;;;;;;47.00;25.30;;;;;;;0.32;86.14;99950.41;108555;284;155079;-73
2023/12/10 09:20:21;;;;;;;45.60;25.40;;;;;;;0.34;86.20;99942.48;108587;285;38804;-74
2023/12/10 09:22:55;;;;;;;44.60;25.50;;;;;;;0.35;85.66;99938.90;108570;284;38379;-73
2023/12/10 09:25:33;;;;;;;44.40;25.60;;;;;;;0.38;85.82;99929.79;108591;283;39591;-72
2023/12/10 09:28:09;;;;;;;47.40;26.80;;;;;;;0.43;85.72;99933.36;108584;284;38741;-70
2023/12/10 09:30:44;;;;;;;49.00;28.50;;;;;;;0.48;85.59;99925.98;108408;284;154883;-69
2023/12/10 09:33:21;;;;;;;47.80;27.90;;;;;;;0.49;85.10;99928.39;108561;285;39307;-68
2023/12/10 09:35:58;;;;;;;48.50;27.90;;;;;;;0.45;84.43;99924.11;108446;285;153716;-67
2023/12/10 09:38:36;;;;;;;46.30;26.10;;;;;;;0.44;85.01;99922.40;108585;285;38300;-72
2023/12/10 09:41:11;;;;;;;48.50;26.40;;;;;;;0.47;84.78;99922.73;108415;285;155280;-71
2023/12/10 09:43:47;;;;;;;43.80;24.80;;;;;;;0.44;84.01;99924.11;108489;285;38208;-70
2023/12/10 09:46:23;;;;;;;47.20;27.50;;;;;;;0.43;84.52;99935.61;108525;285;38913;-70
2023/12/10 09:49:04;;;;;;;46.40;28.00;;;;;;;0.45;84.38;99934.41;108295;285;176047;-72
2023/12/10 09:51:41;;;;;;;47.50;26.10;;;;;;;0.48;84.39;99924.25;108531;285;38273;-70
2023/12/10 09:54:20;;;;;;;49.20;27.60;;;;;;;0.45;83.82;99927.36;108436;285;154071;-69
2023/12/10 09:56:58;;;;;;;47.70;26.60;;;;;;;0.46;84.24;99927.02;108480;285;176189;-74
2023/12/10 09:59:35;;;;;;;48.00;28.30;;;;;;;0.48;83.40;99925.63;108206;285;154209;-73
2023/12/10 10:02:10;;;;;;;47.00;27.80;;;;;;;0.47;83.80;99926.84;108612;285;38314;-73
2023/12/10 10:04:45;;;;;;;51.00;27.70;;;;;;;0.50;83.73;99925.98;108580;285;38549;-72
2023/12/10 10:07:25;;;;;;;49.70;30.10;;;;;;;0.52;83.83;99929.73;108490;285;153765;-72
2023/12/10 10:10:10;;;;;;;52.50;29.10;;;;;;;0.55;83.55;99927.16;108599;277;38192;-72
2023/12/10 10:12:47;;;;;;;50.90;28.20;;;;;;;0.60;83.94;99926.62;108437;285;154315;-74
2023/12/10 10:15:28;;;;;;;48.10;27.90;;;;;;;0.65;83.51;99921.27;108471;285;39360;-71
2023/12/10 10:18:07;;;;;;;49.50;27.70;;;;;;;0.69;83.90;99924.52;108306;285;154821;-73
2023/12/10 10:20:42;;;;;;;51.30;29.10;;;;;;;0.74;83.70;99925.17;108429;285;38530;-72
2023/12/10 10:23:17;;;;;;;52.20;29.80;;;;;;;0.72;82.93;99927.41;108359;285;154781;-71
2023/12/10 10:25:52;;;;;;;53.30;29.20;;;;;;;0.69;83.44;99928.80;108429;285;38276;-73
2023/12/10 10:28:30;;;;;;;48.70;29.00;;;;;;;0.73;83.52;99925.69;108484;285;39410;-67
2023/12/10 10:31:07;;;;;;;49.60;27.90;;;;;;;0.76;83.29;99915.20;108208;285;173325;-67
2023/12/10 10:33:42;;;;;;;53.70;30.40;;;;;;;0.77;82.72;99909.00;108460;285;38491;-68
2023/12/10 10:36:21;;;;;;;53.50;31.30;;;;;;;0.80;82.90;99902.66;108405;285;155045;-68
2023/12/10 10:38:57;;;;;;;56.50;32.90;;;;;;;0.85;83.20;99895.92;108302;285;38859;-68
2023/12/10 10:41:34;;;;;;;56.00;31.30;;;;;;;0.87;82.15;99896.95;108404;285;154140;-71
2023/12/10 10:44:10;;;;;;;51.50;30.40;;;;;;;0.84;82.38;99904.17;108579;285;38247;-71
2023/12/10 10:46:48;;;;;;;49.90;28.80;;;;;;;0.84;82.26;99900.39;108530;285;38144;-71
2023/12/10 10:49:38;;;;;;;48.50;30.30;;;;;;;0.86;82.63;99898.50;108262;285;153862;-71
2023/12/10 10:52:20;;;;;;;54.10;32.60;;;;;;;0.92;82.79;99889.69;108439;285;176075;-71
2023/12/10 10:54:57;;;;;;;51.90;30.90;;;;;;;0.94;82.19;99892.27;108465;283;154536;-71
2023/12/10 10:57:34;;;;;;;50.70;29.70;;;;;;;0.91;82.11;99892.95;108339;285;39194;-71
2023/12/10 11:00:37;;;;;;;50.90;29.20;;;;;;;0.90;81.98;99894.17;108448;285;153914;-71
2023/12/10 11:03:16;;;;;;;48.70;26.50;;;;;;;0.87;81.50;99894.89;108607;284;38209;-72
2023/12/10 11:05:52;;;;;;;48.30;27.70;;;;;;;0.86;81.80;99893.52;108443;284;154108;-74
2023/12/10 11:08:34;;;;;;;52.70;30.00;;;;;;;0.85;81.83;99889.06;108495;284;176048;-72
2023/12/10 11:11:09;;;;;;;48.50;30.10;;;;;;;0.87;81.87;99895.39;107805;284;918545;-72
2023/12/10 11:13:55;;;;;;;50.50;29.50;;;;;;;0.86;81.75;99894.89;108336;286;38199;-72
2023/12/10 11:16:29;;;;;;;49.40;27.70;;;;;;;0.83;81.64;99896.11;108437;286;39401;-72
2023/12/10 11:19:07;;;;;;;49.30;29.50;;;;;;;0.81;81.80;99896.46;108198;286;154592;-73
2023/12/10 11:21:45;;;;;;;46.90;27.30;;;;;;;0.82;81.93;99894.58;108360;286;37963;-71
2023/12/10 11:24:23;;;;;;;50.90;28.90;;;;;;;0.87;82.00;99902.95;108287;286;154252;-72
2023/12/10 11:26:59;;;;;;;49.20;29.00;;;;;;;0.90;82.00;99897.42;108323;286;38055;-68
2023/12/10 11:29:36;;;;;;;46.50;29.00;;;;;;;0.91;81.94;99905.16;108313;286;154675;-69
2023/12/10 11:32:13;;;;;;;50.40;30.20;;;;;;;0.90;81.87;99908.60;108288;286;177954;-73
2023/12/10 11:34:50;;;;;;;50.70;28.60;;;;;;;0.88;81.92;99918.05;108315;286;40044;-74
2023/12/10 11:37:26;;;;;;;49.90;29.70;;;;;;;0.87;81.71;99922.36;107534;286;918128;-74
2023/12/10 11:40:02;;;;;;;47.20;28.20;;;;;;;0.86;81.87;99922.19;108488;286;38435;-72
2023/12/10 11:42:37;;;;;;;46.80;30.10;;;;;;;0.85;81.80;99921.50;108285;286;154183;-69
2023/12/10 11:45:16;;;;;;;49.20;31.10;;;;;;;0.82;81.64;99921.01;108453;286;38224;-70
2023/12/10 11:47:56;;;;;;;48.60;29.80;;;;;;;0.81;81.92;99924.27;108367;286;153748;-71
2023/12/10 11:50:39;;;;;;;48.00;28.50;;;;;;;0.81;81.73;99921.35;108374;286;38144;-71
2023/12/10 11:53:18;;;;;;;64.20;34.80;;;;;;;0.76;81.41;99923.61;108367;286;154321;-69
2023/12/10 11:55:55;;;;;;;56.80;33.00;;;;;;;0.73;81.48;99922.77;108270;286;41361;-69
2023/12/10 11:58:34;;;;;;;52.50;30.40;;;;;;;0.72;81.33;99923.13;108497;286;38191;-71
2023/12/10 12:01:10;;;;;;;57.20;30.50;;;;;;;0.70;81.38;99926.23;108254;286;154144;-73
2023/12/10 12:03:49;;;;;;;48.40;29.20;;;;;;;0.67;80.97;99925.73;108449;286;38302;-70